Agua Amarilla,

5:45 AM MST on January 24, 2017 (GMT -0700)
Gen Rafael Buelna International | | Change Station

Elev 33 ft 23.17 °N, 106.27 °W | Updated 59 minutes ago

Partly Cloudy
Partly Cloudy
64 °F
Feels Like 64 °F
N
8
Wind Variable Wind from NE

Today
High -- | Low -- °F
--% Chance of Precip.
Yesterday
High -- | Low -- °F
Precip. -- in
Pressure 29.91 in
Visibility 10.0 miles
Clouds Scattered Clouds 23000 ft
Dew Point 59 °F
Humidity 83%
Rainfall 0.00 in
Snow Depth Not available.
6:47 AM 5:47 PM
Waning Crescent, 12% visible
METAR MMMZ 241146Z 04007KT 10SM SCT230 18/15 A2993 RMK SLP129 57007 905 8/002 HZY
Pressure 29.91 in
Visibility 10.0 miles
Clouds Scattered Clouds 23000 ft
Dew Point 59 °F
Humidity 83%
Rainfall 0.00 in
Snow Depth Not available.
6:47 AM 5:47 PM
Waning Crescent, 12% visible
METAR MMMZ 241146Z 04007KT 10SM SCT230 18/15 A2993 RMK SLP129 57007 905 8/002 HZY

Get Your Daily Forecast Email!

Thanks for signing up!

Be on the lookout for a verification email in your inbox.

You'll start receiving the daily forecast at 8 AM.

×

10-Day Weather Forecast

No radar image for this location.
×

Almanac

Astronomy

Jan. 24, 2017 Rise Set
Actual Time
Civil Twilight
Nautical Twilight
Astronomical Twilight
Moon
Length of Visible Light
Length of Day
Tomorrow will be .
, % of the Moon is Illuminated

Today's Extremes

Country Highs Country Lows

Community

WunderPhotos

Upload Photos

1,962,540 photos uploaded!

WunderBlog® & News

Nearby

Air Quality

  Air Quality AQ Index Pollutant
Not available.

Snow Depth

Station Depth Elevation

Earthquake Activity

City Distance Mag. Time & Date
Minimum magnitude displayed is 2.5.

Coastal Water Temperatures

Place Temperature

Stations

Nearby Weather Stations

Station Location Temp. Windchill Dew Point Humidity Wind Precip. Elev Updated Type